Time;durP1;ratioP1;P1;durP2;ratioP2;P2;SDS_P1;SDS_P2;PMS_P1;PMS_P2;Temp;Humidity;BMP_temperature;BMP_pressure;BME280_temperature;BME280_humidity;BME280_pressure;Samples;Min_cycle;Max_cycle;Signal;HPM_P1;HPM_P2
2022/01/25 00:08:26;;;;;;;65.93;33.55;;;4.10;99.90;;;;;;4995180;28;20045;-68
2022/01/25 00:24:33;;;;;;;56.13;28.70;;;4.00;99.90;;;;;;5074594;28;20127;-68
2022/01/25 00:32:06;;;;;;;59.95;30.67;;;4.00;99.90;;;;;;5075072;28;20047;-68
2022/01/25 00:34:32;;;;;;;63.55;31.60;;;4.00;99.90;;;;;;5075010;28;20039;-68
2022/01/25 00:36:58;;;;;;;66.13;32.70;;;4.00;99.90;;;;;;5069206;28;20041;-68
2022/01/25 00:39:24;;;;;;;61.35;31.30;;;4.00;99.90;;;;;;5038328;28;20523;-68
2022/01/25 00:41:50;;;;;;;59.47;30.95;;;4.00;99.90;;;;;;5054914;28;20040;-68
2022/01/25 00:44:16;;;;;;;61.83;30.05;;;4.00;99.90;;;;;;5055282;28;20048;-68
2022/01/25 00:46:42;;;;;;;61.60;32.33;;;4.00;99.90;;;;;;5055106;28;20427;-68
2022/01/25 00:49:09;;;;;;;65.78;33.17;;;4.00;99.90;;;;;;5054693;28;20094;-68
2022/01/25 00:54:27;;;;;;;61.67;32.00;;;4.00;99.90;;;;;;5055700;28;20078;-68
2022/01/25 00:56:53;;;;;;;59.08;30.48;;;4.00;99.90;;;;;;5055539;28;20073;-68
2022/01/25 00:59:22;;;;;;;64.05;30.63;;;4.00;99.90;;;;;;5055465;28;20044;-68
2022/01/25 01:01:51;;;;;;;62.25;32.53;;;4.00;99.90;;;;;;5039269;28;20437;-68
2022/01/25 01:04:18;;;;;;;68.30;33.92;;;4.00;99.90;;;;;;5055597;28;20396;-68
2022/01/25 01:06:45;;;;;;;63.58;31.70;;;4.00;99.90;;;;;;5036667;28;20051;-68
2022/01/25 01:09:12;;;;;;;64.03;33.00;;;4.00;99.90;;;;;;5055301;28;20044;-68
2022/01/25 01:11:47;;;;;;;66.65;32.60;;;4.00;99.90;;;;;;5055290;28;20045;-68
2022/01/25 01:14:21;;;;;;;61.08;31.20;;;4.00;99.90;;;;;;5055440;28;20037;-68
2022/01/25 01:43:46;;;;;;;65.82;32.00;;;4.00;99.90;;;;;;5041508;28;19923;-68
2022/01/25 01:49:11;;;;;;;67.20;34.38;;;4.00;99.90;;;;;;5074983;28;20453;-68
2022/01/25 01:51:34;;;;;;;64.53;33.03;;;4.00;99.90;;;;;;5069181;28;20052;-68
2022/01/25 01:54:10;;;;;;;63.95;32.95;;;4.00;99.90;;;;;;5058291;28;20048;-68
2022/01/25 01:56:37;;;;;;;62.88;31.40;;;4.00;99.90;;;;;;5058118;28;20040;-68
2022/01/25 01:59:07;;;;;;;68.80;32.90;;;4.00;99.90;;;;;;5058261;28;20516;-68
2022/01/25 02:01:34;;;;;;;63.35;33.10;;;4.00;99.90;;;;;;5074902;28;20095;-68
2022/01/25 02:04:02;;;;;;;65.05;34.33;;;4.00;99.90;;;;;;5074653;28;20036;-68
2022/01/25 02:06:28;;;;;;;64.88;31.70;;;4.00;99.90;;;;;;5072649;28;20377;-68
2022/01/25 02:08:54;;;;;;;64.85;33.00;;;4.00;99.90;;;;;;5074744;28;20047;-68
2022/01/25 02:11:20;;;;;;;65.00;33.85;;;4.00;99.90;;;;;;5074661;28;20471;-68
2022/01/25 02:13:47;;;;;;;61.22;32.90;;;4.00;99.90;;;;;;5074750;28;20028;-68
2022/01/25 02:24:32;;;;;;;58.53;30.88;;;4.00;99.90;;;;;;5074345;28;20058;-68
2022/01/25 02:26:59;;;;;;;62.90;33.70;;;4.00;99.90;;;;;;5074351;28;20040;-68
2022/01/25 02:29:25;;;;;;;62.13;33.22;;;4.00;99.90;;;;;;5057850;28;20101;-68
2022/01/25 02:31:53;;;;;;;59.67;29.80;;;4.00;99.90;;;;;;5057844;28;20123;-68
2022/01/25 02:34:20;;;;;;;67.30;32.08;;;4.00;99.90;;;;;;5074693;28;20059;-68
2022/01/25 02:36:45;;;;;;;64.03;34.47;;;4.00;99.90;;;;;;5070783;28;20044;-68
2022/01/25 02:39:11;;;;;;;63.08;31.63;;;4.00;99.90;;;;;;5037870;28;20354;-68
2022/01/25 02:41:37;;;;;;;59.85;31.48;;;4.00;99.90;;;;;;5054281;28;20104;-68
2022/01/25 02:44:05;;;;;;;68.53;34.17;;;4.00;99.90;;;;;;5054613;28;20413;-68
2022/01/25 02:49:03;;;;;;;61.80;33.03;;;4.00;99.90;;;;;;5057993;28;20384;-68
2022/01/25 02:51:36;;;;;;;58.35;32.17;;;4.00;99.90;;;;;;5041513;28;20102;-68
2022/01/25 02:54:04;;;;;;;59.15;32.05;;;4.00;99.90;;;;;;5058223;28;20075;-68
2022/01/25 02:56:31;;;;;;;63.20;33.03;;;4.00;99.90;;;;;;5058068;28;20040;-68
2022/01/25 02:58:57;;;;;;;63.55;32.30;;;4.00;99.90;;;;;;5058033;28;20445;-68
2022/01/25 03:01:23;;;;;;;66.43;34.95;;;4.00;99.90;;;;;;5057573;28;20083;-68
2022/01/25 03:03:50;;;;;;;66.63;34.10;;;4.00;99.90;;;;;;5041334;28;20044;-68
2022/01/25 03:06:20;;;;;;;63.80;33.15;;;4.00;99.90;;;;;;5038793;28;20052;-68
2022/01/25 03:08:48;;;;;;;66.43;33.72;;;4.00;99.90;;;;;;5057581;28;20089;-68
2022/01/25 03:11:14;;;;;;;65.80;32.53;;;4.00;99.90;;;;;;5057521;28;20055;-68
2022/01/25 03:13:52;;;;;;;61.72;32.47;;;4.00;99.90;;;;;;5040838;28;20033;-68
2022/01/25 03:16:42;;;;;;;67.32;34.10;;;3.90;99.90;;;;;;5040982;28;20411;-68
2022/01/25 03:22:05;;;;;;;65.93;32.80;;;3.90;99.90;;;;;;5062550;28;20124;-68
2022/01/25 03:24:31;;;;;;;63.00;33.38;;;3.90;99.90;;;;;;5077589;28;20040;-68
2022/01/25 03:26:57;;;;;;;70.38;35.22;;;4.00;99.90;;;;;;5077424;28;20491;-68
2022/01/25 03:29:23;;;;;;;62.70;32.42;;;3.90;99.90;;;;;;5077130;28;20066;-68
2022/01/25 03:31:49;;;;;;;75.55;34.70;;;4.00;99.90;;;;;;5060537;28;20043;-68
2022/01/25 03:34:15;;;;;;;62.78;33.25;;;4.00;99.90;;;;;;5060847;28;20038;-68
2022/01/25 03:36:42;;;;;;;70.00;34.88;;;4.00;99.90;;;;;;5075068;28;20032;-68
2022/01/25 03:39:08;;;;;;;66.40;33.78;;;4.00;99.90;;;;;;5077047;28;20048;-68
2022/01/25 03:41:35;;;;;;;68.82;34.78;;;4.00;99.90;;;;;;5076875;28;20508;-68
2022/01/25 03:44:02;;;;;;;65.35;33.42;;;4.00;99.90;;;;;;5060384;28;20050;-68
2022/01/25 03:51:41;;;;;;;68.40;33.67;;;4.00;99.90;;;;;;5076752;28;20114;-68
2022/01/25 03:54:08;;;;;;;65.30;33.00;;;4.00;99.90;;;;;;5076755;28;20075;-68
2022/01/25 03:56:35;;;;;;;64.43;32.38;;;3.90;99.90;;;;;;5060447;28;20040;-68
2022/01/25 03:59:01;;;;;;;61.20;32.95;;;4.00;99.90;;;;;;5059194;28;20090;-68
2022/01/25 04:01:27;;;;;;;67.43;34.03;;;4.00;99.90;;;;;;5076606;28;20046;-68
2022/01/25 04:04:05;;;;;;;65.10;34.13;;;4.00;99.90;;;;;;5076594;28;20040;-68
2022/01/25 04:06:33;;;;;;;63.72;33.40;;;4.00;99.90;;;;;;5074297;28;20118;-68
2022/01/25 04:09:01;;;;;;;63.55;32.40;;;4.00;99.90;;;;;;5076580;28;20119;-68
2022/01/25 04:11:27;;;;;;;61.60;31.65;;;4.00;99.90;;;;;;5059723;28;20101;-68
2022/01/25 04:13:56;;;;;;;59.90;32.33;;;4.00;99.90;;;;;;5076612;28;20040;-68
2022/01/25 04:16:28;;;;;;;67.45;34.83;;;4.00;99.90;;;;;;5059728;28;20544;-68
2022/01/25 04:21:43;;;;;;;62.05;33.25;;;4.00;99.90;;;;;;5076213;28;20044;-68
2022/01/25 04:26:56;;;;;;;62.20;32.80;;;4.00;99.90;;;;;;5056266;28;20044;-68
2022/01/25 04:29:23;;;;;;;67.05;34.72;;;4.00;99.90;;;;;;5055857;28;20098;-68
2022/01/25 04:31:49;;;;;;;60.03;30.23;;;4.00;99.90;;;;;;5056198;28;20111;-68
2022/01/25 04:50:41;;;;;;;64.20;31.92;;;4.00;99.90;;;;;;5055609;28;20079;-68
2022/01/25 04:53:15;;;;;;;66.50;32.95;;;4.00;99.90;;;;;;5055903;28;20350;-68
2022/01/25 04:58:48;;;;;;;66.18;31.52;;;4.00;99.90;;;;;;5032285;28;20041;-68
2022/01/25 05:01:14;;;;;;;59.65;31.58;;;3.90;99.90;;;;;;5055459;28;20683;-68
2022/01/25 05:06:17;;;;;;;63.20;31.88;;;3.90;99.90;;;;;;5053443;28;20506;-68
2022/01/25 05:08:48;;;;;;;62.25;32.85;;;4.00;99.90;;;;;;5055317;28;20036;-68
2022/01/25 05:11:34;;;;;;;;;;;3.90;99.90;;;;;;5038963;28;20048;-68
2022/01/25 05:16:33;;;;;;;66.60;30.77;;;3.90;99.90;;;;;;5055417;28;20055;-68
2022/01/25 05:19:20;;;;;;;67.40;33.95;;;3.90;99.90;;;;;;5055215;28;20044;-68
2022/01/25 05:24:50;;;;;;;64.30;31.90;;;3.90;99.90;;;;;;5031635;28;20418;-68
2022/01/25 05:27:19;;;;;;;64.53;32.50;;;3.90;99.90;;;;;;5058320;28;20040;-68
2022/01/25 05:29:45;;;;;;;64.72;33.20;;;3.90;99.90;;;;;;5075139;28;20036;-68
2022/01/25 05:32:12;;;;;;;67.90;34.70;;;3.90;99.90;;;;;;5075171;28;20496;-68
2022/01/25 05:34:38;;;;;;;70.72;35.20;;;3.90;99.90;;;;;;5058431;28;20484;-68
2022/01/25 05:37:07;;;;;;;70.10;35.22;;;3.90;99.90;;;;;;5072992;28;20035;-68
2022/01/25 05:39:34;;;;;;;65.85;33.03;;;3.90;99.90;;;;;;5074953;28;20481;-68
2022/01/25 05:42:19;;;;;;;65.22;32.92;;;3.90;99.90;;;;;;5074824;28;20043;-68
2022/01/25 05:47:26;;;;;;;66.80;33.97;;;3.90;99.90;;;;;;5074642;28;20385;-68
2022/01/25 05:49:52;;;;;;;65.15;31.45;;;3.90;99.90;;;;;;5074885;28;20047;-68
2022/01/25 05:52:18;;;;;;;69.07;33.40;;;3.90;99.90;;;;;;5058108;28;20408;-68
2022/01/25 05:54:44;;;;;;;68.18;34.28;;;3.90;99.90;;;;;;5074912;28;20047;-68
2022/01/25 05:57:11;;;;;;;63.63;31.42;;;3.90;99.90;;;;;;5074909;28;20439;-68
2022/01/25 05:59:37;;;;;;;67.32;32.53;;;3.90;99.90;;;;;;5075034;28;20065;-68
2022/01/25 06:02:04;;;;;;;65.45;32.05;;;3.90;99.90;;;;;;5074168;28;20040;-68
2022/01/25 06:04:30;;;;;;;62.28;32.72;;;3.90;99.90;;;;;;5073779;28;20488;-68
2022/01/25 06:06:56;;;;;;;65.03;33.55;;;3.90;99.90;;;;;;5071251;28;20047;-68
2022/01/25 06:09:25;;;;;;;66.90;33.00;;;3.90;99.90;;;;;;5073586;28;20036;-68
2022/01/25 06:11:55;;;;;;;66.80;33.03;;;3.90;99.90;;;;;;5073991;28;20400;-68
2022/01/25 06:14:21;;;;;;;66.55;33.85;;;3.90;99.90;;;;;;5057050;28;20036;-68
2022/01/25 06:16:48;;;;;;;67.15;33.50;;;3.90;99.90;;;;;;5073816;28;20438;-68
2022/01/25 06:19:13;;;;;;;68.35;32.63;;;3.90;99.90;;;;;;5073639;28;20059;-68
2022/01/25 06:21:39;;;;;;;59.40;30.30;;;3.90;99.90;;;;;;5073674;28;20277;-68
2022/01/25 06:24:05;;;;;;;67.35;33.63;;;3.90;99.90;;;;;;5077560;28;20420;-68
2022/01/25 06:26:31;;;;;;;63.85;33.67;;;3.80;99.90;;;;;;5077886;28;20036;-68
2022/01/25 06:28:57;;;;;;;68.65;33.97;;;3.80;99.90;;;;;;5077303;28;20418;-68
2022/01/25 06:31:23;;;;;;;64.72;31.83;;;3.90;99.90;;;;;;5060997;28;20074;-68
2022/01/25 06:33:49;;;;;;;69.97;31.92;;;3.90;99.90;;;;;;5060621;28;20040;-68
2022/01/25 06:36:15;;;;;;;66.30;32.20;;;3.90;99.90;;;;;;5074989;28;20040;-68
2022/01/25 06:38:42;;;;;;;65.80;33.10;;;3.90;99.90;;;;;;5059817;28;20452;-68
2022/01/25 06:41:10;;;;;;;66.10;32.15;;;3.90;99.90;;;;;;5057241;28;20110;-68
2022/01/25 06:43:36;;;;;;;66.63;32.20;;;3.80;99.90;;;;;;5057132;28;20078;-68
2022/01/25 06:46:03;;;;;;;64.60;31.48;;;3.90;99.90;;;;;;5040665;28;20508;-68
2022/01/25 06:48:30;;;;;;;67.05;31.20;;;3.90;99.90;;;;;;5057049;28;20576;-68
2022/01/25 06:50:57;;;;;;;62.20;31.50;;;3.90;99.90;;;;;;5040386;28;20090;-68
2022/01/25 06:53:23;;;;;;;65.25;32.95;;;3.90;99.90;;;;;;5056863;28;20039;-68
2022/01/25 06:55:49;;;;;;;62.45;31.08;;;3.90;99.90;;;;;;5040307;28;20032;-68
2022/01/25 06:58:14;;;;;;;64.82;31.63;;;3.80;99.90;;;;;;5040226;28;20123;-67
2022/01/25 07:00:41;;;;;;;64.80;32.03;;;3.90;99.90;;;;;;5040226;28;20186;-68
2022/01/25 07:03:07;;;;;;;63.60;30.63;;;3.80;99.90;;;;;;5057116;28;20044;-68
2022/01/25 07:05:33;;;;;;;69.55;32.63;;;3.80;99.90;;;;;;5054418;28;20509;-68
2022/01/25 07:08:00;;;;;;;73.68;35.95;;;3.80;99.90;;;;;;5056660;28;20051;-68
2022/01/25 07:10:26;;;;;;;67.57;32.10;;;3.80;99.90;;;;;;5056778;28;20512;-67
2022/01/25 07:12:51;;;;;;;65.95;32.72;;;3.80;99.90;;;;;;5056624;28;20145;-67
2022/01/25 07:15:17;;;;;;;66.97;33.47;;;3.80;99.90;;;;;;5056544;28;20094;-67
2022/01/25 07:17:44;;;;;;;71.53;33.28;;;3.80;99.90;;;;;;5059092;28;20078;-68
2022/01/25 07:20:10;;;;;;;69.65;31.83;;;3.80;99.90;;;;;;5073674;28;20565;-67
2022/01/25 07:22:37;;;;;;;64.30;30.90;;;3.90;99.90;;;;;;5067344;28;20484;-68
2022/01/25 07:25:05;;;;;;;68.45;34.13;;;3.80;99.90;;;;;;5094038;28;20050;-68
2022/01/25 07:27:31;;;;;;;64.63;32.70;;;3.80;99.90;;;;;;5094041;28;20105;-68
2022/01/25 07:29:57;;;;;;;71.63;36.25;;;3.80;99.90;;;;;;5094133;28;20044;-68
2022/01/25 07:32:23;;;;;;;67.82;32.47;;;3.80;99.90;;;;;;5094054;28;20178;-68
2022/01/25 07:34:49;;;;;;;66.40;31.85;;;3.80;99.90;;;;;;5093000;28;20126;-68
2022/01/25 07:37:15;;;;;;;68.28;31.77;;;3.80;99.90;;;;;;5073347;28;20498;-68
2022/01/25 07:39:42;;;;;;;68.75;33.65;;;3.80;99.90;;;;;;5076920;28;20075;-68
2022/01/25 07:42:09;;;;;;;68.35;33.83;;;3.80;99.90;;;;;;5077282;28;20047;-68
2022/01/25 07:44:38;;;;;;;64.68;32.33;;;3.80;99.90;;;;;;5077167;28;20035;-68
2022/01/25 07:47:05;;;;;;;66.43;32.80;;;3.80;99.90;;;;;;5076936;28;20052;-67
2022/01/25 07:49:31;;;;;;;64.03;31.75;;;3.80;99.90;;;;;;5076696;28;20043;-68
2022/01/25 07:52:00;;;;;;;63.70;32.10;;;3.80;99.90;;;;;;5095200;28;20059;-68
2022/01/25 07:54:27;;;;;;;64.90;30.85;;;3.80;99.90;;;;;;5060084;28;20384;-68
2022/01/25 07:56:53;;;;;;;65.75;30.45;;;3.90;99.90;;;;;;5076729;28;20699;-68
2022/01/25 07:59:19;;;;;;;65.30;32.60;;;3.90;99.90;;;;;;5076630;28;20044;-68
2022/01/25 08:01:45;;;;;;;69.63;34.28;;;3.90;99.90;;;;;;5076634;28;20180;-68
2022/01/25 08:04:13;;;;;;;67.07;34.58;;;3.90;99.90;;;;;;5076822;28;20126;-68
2022/01/25 08:06:39;;;;;;;64.28;31.60;;;3.90;99.90;;;;;;5057826;28;20141;-68
2022/01/25 08:09:06;;;;;;;69.78;33.42;;;3.90;99.90;;;;;;5076339;28;20075;-68
2022/01/25 08:11:33;;;;;;;61.80;31.95;;;3.90;99.90;;;;;;5060058;28;20043;-68
2022/01/25 08:14:20;;;;;;;64.57;29.58;;;3.90;99.90;;;;;;5076313;28;20495;-68
2022/01/25 08:16:48;;;;;;;67.93;32.35;;;3.90;99.90;;;;;;5075792;28;20075;-68
2022/01/25 08:19:15;;;;;;;63.60;31.13;;;3.90;99.90;;;;;;5076493;28;20063;-68
2022/01/25 08:21:41;;;;;;;64.38;30.02;;;3.90;99.90;;;;;;5059482;28;20067;-68
2022/01/25 08:24:08;;;;;;;69.82;31.85;;;3.90;99.90;;;;;;5059793;28;20442;-68
2022/01/25 08:26:34;;;;;;;66.78;32.40;;;3.90;99.90;;;;;;5059500;28;20055;-68
2022/01/25 08:29:00;;;;;;;63.78;32.45;;;4.00;99.90;;;;;;5076218;28;20052;-68
2022/01/25 08:31:26;;;;;;;71.47;35.88;;;4.00;99.90;;;;;;5059341;28;20430;-68
2022/01/25 08:33:53;;;;;;;69.18;33.10;;;4.00;99.90;;;;;;5076247;28;20036;-69
2022/01/25 08:36:19;;;;;;;70.05;32.10;;;3.90;99.90;;;;;;5073760;28;20036;-68
2022/01/25 08:38:45;;;;;;;69.68;33.13;;;3.90;99.90;;;;;;5075795;28;20036;-68
2022/01/25 08:41:14;;;;;;;62.08;32.30;;;4.00;99.90;;;;;;5059262;28;20051;-68
2022/01/25 08:43:40;;;;;;;68.03;32.42;;;4.00;99.90;;;;;;5059431;28;20036;-68
2022/01/25 08:46:06;;;;;;;68.47;33.17;;;4.00;99.90;;;;;;5075484;28;20417;-68
2022/01/25 08:48:32;;;;;;;68.22;31.15;;;4.00;99.90;;;;;;5059047;28;20048;-68
2022/01/25 08:50:58;;;;;;;68.18;33.42;;;4.00;99.90;;;;;;5075625;28;20518;-68
2022/01/25 08:53:25;;;;;;;70.57;33.58;;;4.00;99.90;;;;;;5075982;28;20047;-68
2022/01/25 08:55:50;;;;;;;65.13;31.40;;;4.00;99.90;;;;;;5075708;28;20038;-68
2022/01/25 08:58:16;;;;;;;66.45;33.78;;;4.00;99.90;;;;;;5075875;28;20089;-68
2022/01/25 09:00:42;;;;;;;72.70;34.67;;;4.00;99.90;;;;;;5058752;28;20044;-68
2022/01/25 09:03:08;;;;;;;64.10;32.42;;;4.00;99.90;;;;;;5075334;28;20040;-68
2022/01/25 09:05:34;;;;;;;70.22;33.08;;;4.00;99.90;;;;;;5073308;28;20048;-68
2022/01/25 09:08:01;;;;;;;69.68;34.50;;;4.00;99.90;;;;;;5075718;28;20044;-68
2022/01/25 09:10:27;;;;;;;69.18;33.85;;;4.00;99.90;;;;;;5075264;28;20438;-68
2022/01/25 09:12:54;;;;;;;67.90;31.55;;;4.00;99.90;;;;;;5075275;28;20504;-68
2022/01/25 09:15:21;;;;;;;66.35;31.63;;;4.10;99.90;;;;;;5075447;28;20085;-68
2022/01/25 09:17:47;;;;;;;71.68;32.22;;;4.10;99.90;;;;;;5058391;28;20040;-68
2022/01/25 09:20:14;;;;;;;66.03;31.67;;;4.10;99.90;;;;;;5058355;28;20518;-68
2022/01/25 09:22:40;;;;;;;66.45;33.03;;;4.10;99.90;;;;;;5064097;28;20139;-68
2022/01/25 09:25:06;;;;;;;69.93;33.53;;;4.10;99.90;;;;;;5038742;28;20362;-67
2022/01/25 09:27:32;;;;;;;65.10;33.65;;;4.10;99.90;;;;;;5045068;28;20075;-68
2022/01/25 09:30:05;;;;;;;74.22;34.63;;;4.10;99.90;;;;;;5069226;28;20072;-68
2022/01/25 09:32:30;;;;;;;76.13;36.22;;;4.10;99.90;;;;;;5071876;28;20468;-67
2022/01/25 09:34:58;;;;;;;71.88;33.67;;;4.10;99.90;;;;;;5062371;28;20115;-67
2022/01/25 09:37:23;;;;;;;64.70;32.03;;;4.10;99.90;;;;;;5053878;28;20080;-67
2022/01/25 09:39:49;;;;;;;76.85;33.50;;;4.10;99.90;;;;;;5054929;28;20044;-67
2022/01/25 09:42:16;;;;;;;71.63;35.72;;;4.10;99.90;;;;;;5037880;28;20036;-68
2022/01/25 09:44:42;;;;;;;72.68;35.85;;;4.20;99.90;;;;;;5054917;28;20032;-67
2022/01/25 09:47:12;;;;;;;65.93;32.85;;;4.20;99.90;;;;;;5054716;28;20529;-67
2022/01/25 09:49:37;;;;;;;67.82;32.67;;;4.20;99.90;;;;;;5054744;28;20043;-67
2022/01/25 09:52:06;;;;;;;69.60;32.55;;;4.20;99.90;;;;;;5054759;28;20416;-67
2022/01/25 09:54:34;;;;;;;72.22;33.20;;;4.20;99.90;;;;;;5037698;28;20559;-67
2022/01/25 09:57:01;;;;;;;73.07;34.85;;;4.20;99.90;;;;;;5054091;28;20037;-67
2022/01/25 09:59:29;;;;;;;67.93;32.63;;;4.30;99.90;;;;;;5054868;28;20102;-67
2022/01/25 10:01:56;;;;;;;71.18;33.13;;;4.30;99.90;;;;;;5054632;28;20504;-67
2022/01/25 10:04:35;;;;;;;79.80;37.20;;;4.30;99.90;;;;;;5054652;28;20097;-67
2022/01/25 10:07:04;;;;;;;66.13;33.55;;;4.30;99.90;;;;;;5052607;28;20047;-68
2022/01/25 10:09:31;;;;;;;71.55;36.60;;;4.40;99.90;;;;;;5037970;28;20048;-67
2022/01/25 10:11:57;;;;;;;76.30;36.97;;;4.30;99.90;;;;;;5037971;28;20037;-67
2022/01/25 10:14:25;;;;;;;82.15;37.83;;;4.30;99.90;;;;;;5054883;28;20102;-68
2022/01/25 10:16:54;;;;;;;77.88;38.67;;;4.30;99.90;;;;;;5038193;28;20059;-67
2022/01/25 10:19:24;;;;;;;72.43;38.45;;;4.30;99.90;;;;;;5054671;28;20534;-67
2022/01/25 10:21:51;;;;;;;78.15;38.50;;;4.30;99.90;;;;;;5054992;28;20388;-67
2022/01/25 10:24:24;;;;;;;78.50;37.70;;;4.30;99.90;;;;;;5071230;28;20044;-67
2022/01/25 10:27:00;;;;;;;75.30;36.42;;;4.30;99.90;;;;;;5054591;28;20048;-67
2022/01/25 10:29:31;;;;;;;76.90;37.17;;;4.40;99.90;;;;;;5068051;28;20484;-67
2022/01/25 10:32:06;;;;;;;77.93;36.80;;;4.40;99.90;;;;;;5054468;28;20393;-67
2022/01/25 10:34:36;;;;;;;70.22;33.72;;;4.40;99.90;;;;;;5037195;28;20045;-67
2022/01/25 10:37:13;;;;;;;72.47;36.60;;;4.40;99.90;;;;;;5071996;28;20044;-67
2022/01/25 10:39:42;;;;;;;71.00;35.20;;;4.40;99.90;;;;;;5057771;28;20399;-67
2022/01/25 10:42:25;;;;;;;68.40;33.80;;;4.40;99.90;;;;;;5070389;28;20495;-67
2022/01/25 10:44:58;;;;;;;78.60;37.85;;;4.40;99.90;;;;;;5070631;28;20653;-67
2022/01/25 10:47:46;;;;;;;82.32;38.72;;;4.40;99.90;;;;;;5054151;28;20063;-68
2022/01/25 10:50:35;;;;;;;87.72;42.85;;;4.40;99.90;;;;;;5070922;28;20481;-67
2022/01/25 10:53:11;;;;;;;91.20;42.90;;;4.40;99.90;;;;;;5070871;28;20071;-67
2022/01/25 10:55:37;;;;;;;91.53;41.88;;;4.40;99.90;;;;;;5053996;28;20067;-67
2022/01/25 10:58:04;;;;;;;89.70;42.72;;;4.40;99.90;;;;;;5053972;28;20041;-67
2022/01/25 11:00:35;;;;;;;93.43;43.13;;;4.30;99.90;;;;;;5054209;28;20048;-68
2022/01/25 11:03:05;;;;;;;89.47;39.50;;;4.40;99.90;;;;;;5070952;28;20040;-68
2022/01/25 11:05:34;;;;;;;97.22;43.55;;;4.40;99.90;;;;;;5050892;28;20040;-67
2022/01/25 11:08:11;;;;;;;89.10;40.50;;;4.40;99.90;;;;;;5070504;28;20067;-67
2022/01/25 11:10:43;;;;;;;92.07;41.67;;;4.30;99.90;;;;;;5073039;28;20051;-67
2022/01/25 11:13:22;;;;;;;91.30;40.35;;;4.30;99.90;;;;;;5073313;28;20040;-68
2022/01/25 11:15:48;;;;;;;88.93;42.92;;;4.30;99.90;;;;;;5056845;28;20036;-67
2022/01/25 11:18:14;;;;;;;93.78;39.35;;;4.40;99.90;;;;;;5072971;28;20063;-67
2022/01/25 11:20:40;;;;;;;94.22;43.85;;;4.40;99.90;;;;;;5056473;28;20127;-67
2022/01/25 11:23:06;;;;;;;90.47;42.45;;;4.40;99.90;;;;;;5087645;28;20052;-67
2022/01/25 11:25:33;;;;;;;90.53;42.33;;;4.40;99.90;;;;;;5076367;28;20132;-67
2022/01/25 11:27:59;;;;;;;94.38;43.25;;;4.40;99.90;;;;;;5093258;28;20048;-67
2022/01/25 11:30:25;;;;;;;95.78;44.65;;;4.50;99.90;;;;;;5064842;28;20455;-67
2022/01/25 11:32:53;;;;;;;91.88;42.80;;;4.50;99.90;;;;;;5076122;28;20032;-68
2022/01/25 11:35:23;;;;;;;92.90;44.65;;;4.50;99.90;;;;;;5057111;28;20154;-68
2022/01/25 11:37:50;;;;;;;88.70;42.88;;;4.50;99.90;;;;;;5059339;28;20272;-68
2022/01/25 11:40:20;;;;;;;85.22;40.20;;;4.50;99.90;;;;;;5076315;28;20420;-67
2022/01/25 11:42:51;;;;;;;86.28;38.67;;;4.60;99.90;;;;;;5075904;28;20095;-67
2022/01/25 11:45:22;;;;;;;88.07;40.63;;;4.60;99.90;;;;;;5059630;28;20391;-68
2022/01/25 11:47:50;;;;;;;84.15;37.88;;;4.60;99.90;;;;;;5075952;28;20040;-68
2022/01/25 11:50:16;;;;;;;103.82;49.55;;;4.60;99.90;;;;;;5075975;28;20039;-67
2022/01/25 11:52:53;;;;;;;111.93;51.65;;;4.60;99.90;;;;;;5076139;28;20130;-67
2022/01/25 11:55:22;;;;;;;106.60;47.78;;;4.50;99.90;;;;;;5059432;28;20109;-68
2022/01/25 11:58:06;;;;;;;110.30;52.92;;;4.50;99.90;;;;;;5059053;28;20040;-67
2022/01/25 12:00:46;;;;;;;113.22;51.70;;;4.50;99.90;;;;;;5075980;28;20464;-67
2022/01/25 12:03:30;;;;;;;122.13;52.85;;;4.50;99.90;;;;;;5075619;28;20051;-68
2022/01/25 12:06:36;;;;;;;105.57;49.78;;;4.50;99.90;;;;;;5073397;28;20051;-68
2022/01/25 12:09:13;;;;;;;110.47;49.70;;;4.50;99.90;;;;;;5014599;28;20073;-68
2022/01/25 12:11:49;;;;;;;105.25;49.60;;;4.50;99.90;;;;;;5069813;28;20052;-67
2022/01/25 12:14:18;;;;;;;95.03;43.67;;;4.50;99.90;;;;;;5075441;28;20047;-67
2022/01/25 12:16:50;;;;;;;88.55;41.67;;;4.50;99.90;;;;;;5075217;28;20131;-67
2022/01/25 12:19:19;;;;;;;83.55;38.25;;;4.50;99.90;;;;;;5057238;28;20043;-68
2022/01/25 12:21:45;;;;;;;80.50;39.00;;;4.60;99.90;;;;;;5078849;28;20109;-68
2022/01/25 12:24:30;;;;;;;84.50;37.85;;;4.50;99.90;;;;;;5096304;28;20396;-68
2022/01/25 12:29:41;;;;;;;92.28;41.72;;;4.50;99.90;;;;;;5088483;28;20054;-67
2022/01/25 12:32:23;;;;;;;97.13;44.15;;;4.50;99.90;;;;;;5075006;28;20047;-68
2022/01/25 12:35:00;;;;;;;90.03;40.70;;;4.50;99.90;;;;;;5075181;28;20523;-67
2022/01/25 12:37:45;;;;;;;87.90;39.55;;;4.50;99.90;;;;;;5073634;28;20132;-67
2022/01/25 12:40:26;;;;;;;86.47;37.25;;;4.50;99.90;;;;;;5074888;28;20093;-67
2022/01/25 12:42:53;;;;;;;90.10;41.65;;;4.50;99.90;;;;;;5074751;28;20504;-68
2022/01/25 12:45:20;;;;;;;83.82;39.40;;;4.50;99.90;;;;;;5075217;28;20054;-67
2022/01/25 12:48:01;;;;;;;84.70;38.30;;;4.50;99.90;;;;;;5075019;28;20120;-67
2022/01/25 12:50:27;;;;;;;90.65;41.22;;;4.50;99.90;;;;;;5058091;28;20435;-68
2022/01/25 12:52:54;;;;;;;87.00;40.22;;;4.50;99.90;;;;;;5074678;28;20044;-68
2022/01/25 12:55:30;;;;;;;94.88;44.85;;;4.50;99.90;;;;;;5058300;28;20373;-66
2022/01/25 12:57:56;;;;;;;105.28;46.15;;;4.50;99.90;;;;;;5074775;28;20071;-66
2022/01/25 13:00:30;;;;;;;92.93;41.88;;;4.50;99.90;;;;;;5074026;28;20048;-66
2022/01/25 13:03:18;;;;;;;90.68;42.00;;;4.60;99.90;;;;;;5057723;28;20043;-66
2022/01/25 13:05:52;;;;;;;95.95;43.50;;;4.60;99.90;;;;;;5055460;28;20043;-66
2022/01/25 13:08:33;;;;;;;96.05;45.70;;;4.60;99.90;;;;;;5057586;28;20560;-66
2022/01/25 13:11:28;;;;;;;120.47;52.63;;;4.60;99.90;;;;;;5074216;28;20496;-66
2022/01/25 13:16:51;;;;;;;130.23;60.20;;;4.60;99.90;;;;;;5074281;28;20136;-66
2022/01/25 13:19:21;;;;;;;130.60;59.55;;;4.50;99.90;;;;;;5074321;28;20070;-66
2022/01/25 13:21:58;;;;;;;126.50;56.42;;;4.50;99.90;;;;;;5070482;28;20056;-66
2022/01/25 13:24:29;;;;;;;112.72;50.40;;;4.50;99.90;;;;;;5054304;28;20080;-66
2022/01/25 13:27:10;;;;;;;109.75;48.40;;;4.50;99.90;;;;;;5052558;28;20102;-66
2022/01/25 13:32:42;;;;;;;120.50;54.08;;;4.50;99.90;;;;;;5053815;28;20211;-66
2022/01/25 13:35:32;;;;;;;129.57;57.45;;;4.50;99.90;;;;;;5051792;28;20382;-66
2022/01/25 13:38:05;;;;;;;122.53;56.28;;;4.50;99.90;;;;;;5054051;28;20099;-66
2022/01/25 13:45:56;;;;;;;112.82;50.65;;;4.50;99.90;;;;;;5055037;28;20131;-66
2022/01/25 13:48:24;;;;;;;123.75;54.97;;;4.50;99.90;;;;;;5038353;28;20408;-66
2022/01/25 13:51:03;;;;;;;126.63;54.67;;;4.50;99.90;;;;;;5053888;28;20041;-66
2022/01/25 13:53:28;;;;;;;125.15;53.67;;;4.50;99.90;;;;;;5053819;28;20264;-66
2022/01/25 13:55:57;;;;;;;115.93;51.13;;;4.50;99.90;;;;;;5053822;28;20078;-66
2022/01/25 13:58:29;;;;;;;116.50;50.00;;;4.50;99.90;;;;;;5054005;28;20040;-66
2022/01/25 14:00:56;;;;;;;109.97;48.95;;;4.50;99.90;;;;;;5053718;28;20040;-66
2022/01/25 14:03:31;;;;;;;107.05;47.97;;;4.50;99.90;;;;;;5053671;28;20052;-66
2022/01/25 14:05:57;;;;;;;91.28;43.55;;;4.50;99.90;;;;;;5051605;28;20041;-66
2022/01/25 14:08:42;;;;;;;95.60;41.50;;;4.50;99.90;;;;;;5053714;28;20074;-66
2022/01/25 14:22:48;;;;;;;89.38;38.15;;;4.40;99.90;;;;;;5061954;28;20063;-66
2022/01/25 14:25:39;;;;;;;86.07;39.78;;;4.40;99.90;;;;;;5073497;28;20044;-66
2022/01/25 14:28:10;;;;;;;89.25;38.35;;;4.40;99.90;;;;;;5073349;28;20082;-66
2022/01/25 14:30:38;;;;;;;78.15;35.83;;;4.40;99.90;;;;;;5056806;28;20044;-66
2022/01/25 14:33:11;;;;;;;75.00;35.05;;;4.40;99.90;;;;;;5056812;28;20044;-66
2022/01/25 14:35:49;;;;;;;85.88;39.30;;;4.40;99.90;;;;;;5071070;28;20044;-66
2022/01/25 14:38:23;;;;;;;81.82;37.25;;;4.40;99.90;;;;;;5059873;28;20374;-66
2022/01/25 14:40:56;;;;;;;83.63;37.72;;;4.40;99.90;;;;;;5036901;28;20052;-66
2022/01/25 14:43:34;;;;;;;85.85;36.05;;;4.40;99.90;;;;;;5054428;28;20496;-66
2022/01/25 14:46:13;;;;;;;81.80;36.72;;;4.40;99.90;;;;;;5057200;28;20048;-66
2022/01/25 14:48:43;;;;;;;84.32;37.70;;;4.40;99.90;;;;;;5057046;28;20048;-66
2022/01/25 14:51:11;;;;;;;83.75;39.03;;;4.40;99.90;;;;;;5059719;28;20067;-66
2022/01/25 14:53:38;;;;;;;88.30;39.45;;;4.40;99.90;;;;;;5073601;28;20127;-67
2022/01/25 14:56:06;;;;;;;76.30;33.90;;;4.30;99.90;;;;;;5057492;28;20404;-66
2022/01/25 15:01:17;;;;;;;79.22;36.53;;;4.40;99.90;;;;;;5073441;28;20048;-66
2022/01/25 15:03:45;;;;;;;76.63;36.10;;;4.30;99.90;;;;;;5056539;28;20127;-66
2022/01/25 15:06:15;;;;;;;70.40;34.75;;;4.30;99.90;;;;;;5054368;28;20484;-66
2022/01/25 15:08:51;;;;;;;;;;;4.30;99.90;;;;;;5057519;28;20067;-66